createdAt,value
2018-07-16T00:00:40.128Z,0.00
2018-07-16T00:01:40.096Z,0.00
2018-07-16T00:02:40.117Z,0.00
2018-07-16T00:03:40.076Z,0.00
2018-07-16T00:04:40.064Z,0.00
2018-07-16T00:05:40.053Z,0.00
2018-07-16T00:06:40.047Z,0.00
2018-07-16T00:07:40.047Z,0.00
2018-07-16T00:08:40.023Z,0.00
2018-07-16T00:09:40.010Z,0.00
2018-07-16T00:10:39.999Z,0.00
2018-07-16T00:11:39.994Z,0.00
2018-07-16T00:12:40.011Z,0.00
2018-07-16T00:13:39.967Z,0.00
2018-07-16T00:14:39.974Z,0.00
2018-07-16T00:15:39.951Z,0.00
2018-07-16T00:16:39.937Z,0.00
2018-07-16T00:17:39.941Z,0.00
2018-07-16T00:18:39.913Z,0.00
2018-07-16T00:19:39.906Z,0.00
2018-07-16T00:20:39.893Z,0.00
2018-07-16T00:21:39.884Z,0.00
2018-07-16T00:22:39.892Z,0.00
2018-07-16T00:23:39.867Z,0.00
2018-07-16T00:24:39.847Z,0.00
2018-07-16T00:25:39.845Z,0.00
2018-07-16T00:26:39.830Z,0.00
2018-07-16T00:27:39.814Z,0.00
2018-07-16T00:28:39.831Z,0.00
2018-07-16T00:29:39.800Z,0.00
2018-07-16T00:30:39.784Z,0.00
2018-07-16T00:31:39.773Z,0.00
2018-07-16T00:32:39.770Z,0.00
2018-07-16T00:33:39.754Z,0.00
2018-07-16T00:34:39.796Z,0.00
2018-07-16T00:35:40.490Z,0.00
2018-07-16T00:36:39.721Z,0.00
2018-07-16T00:37:39.709Z,0.00
2018-07-16T00:38:39.702Z,0.00
2018-07-16T00:39:39.690Z,0.00
2018-07-16T00:40:39.690Z,0.00
2018-07-16T00:41:39.662Z,0.00
2018-07-16T00:42:39.659Z,0.00
2018-07-16T00:43:39.648Z,0.00
2018-07-16T00:44:39.631Z,0.00
2018-07-16T00:45:39.664Z,0.00
2018-07-16T00:46:39.617Z,0.00
2018-07-16T00:47:39.598Z,0.00
2018-07-16T00:48:39.594Z,0.00
2018-07-16T00:49:39.579Z,0.00
2018-07-16T00:50:39.598Z,0.00
2018-07-16T00:51:39.578Z,0.00
2018-07-16T00:52:39.549Z,0.00
2018-07-16T00:53:39.536Z,0.00
2018-07-16T00:54:39.536Z,0.00
2018-07-16T00:55:39.517Z,0.00
2018-07-16T00:56:39.510Z,0.00
2018-07-16T00:57:39.501Z,0.00
2018-07-16T00:58:39.507Z,0.00
2018-07-16T00:59:39.475Z,0.00
2018-07-16T01:00:39.457Z,0.00
2018-07-16T01:01:39.447Z,0.00
2018-07-16T01:02:39.449Z,0.00
2018-07-16T01:03:39.428Z,0.00
2018-07-16T01:04:39.411Z,0.00
2018-07-16T01:05:39.407Z,0.00
2018-07-16T01:06:39.395Z,0.00
2018-07-16T01:07:39.397Z,0.00
2018-07-16T01:08:39.369Z,0.00
2018-07-16T01:09:39.362Z,0.00
2018-07-16T01:10:39.350Z,0.00
2018-07-16T01:11:39.346Z,0.00
2018-07-16T01:12:39.337Z,0.00
2018-07-16T01:13:39.315Z,0.00
2018-07-16T01:14:39.303Z,0.00
2018-07-16T01:15:39.295Z,0.00
2018-07-16T01:16:39.286Z,0.00
2018-07-16T01:17:39.293Z,0.00
2018-07-16T01:18:39.431Z,0.00
2018-07-16T01:19:39.247Z,0.00
2018-07-16T01:20:39.237Z,0.00
2018-07-16T01:21:39.248Z,0.00
2018-07-16T01:22:39.213Z,0.00
2018-07-16T01:23:39.223Z,0.00
2018-07-16T01:24:39.199Z,0.00
2018-07-16T01:25:39.182Z,0.00
2018-07-16T01:26:39.179Z,0.00
2018-07-16T01:27:39.224Z,0.00
2018-07-16T01:28:39.150Z,0.00
2018-07-16T01:29:39.230Z,0.00
2018-07-16T01:30:39.128Z,0.00
2018-07-16T01:31:39.123Z,0.00
2018-07-16T01:32:39.105Z,0.00
2018-07-16T01:33:39.094Z,0.00
2018-07-16T01:34:39.100Z,0.00
2018-07-16T01:35:39.074Z,0.00
2018-07-16T01:36:39.066Z,0.00
2018-07-16T01:37:39.051Z,0.00
2018-07-16T01:38:39.040Z,0.00
2018-07-16T01:39:39.048Z,0.00
2018-07-16T01:40:39.238Z,0.00
2018-07-16T01:41:39.006Z,0.00
2018-07-16T01:42:38.999Z,0.00
2018-07-16T01:43:38.985Z,0.00
2018-07-16T01:44:38.976Z,0.00
2018-07-16T01:45:38.980Z,0.00
2018-07-16T01:46:38.956Z,0.00
2018-07-16T01:47:38.944Z,0.00
2018-07-16T01:48:38.932Z,0.00
2018-07-16T01:49:38.919Z,0.00
2018-07-16T01:50:38.918Z,0.00
2018-07-16T01:51:38.915Z,0.00
2018-07-16T01:52:38.888Z,0.00
2018-07-16T01:53:38.877Z,0.00
2018-07-16T01:54:38.868Z,0.00
2018-07-16T01:55:38.858Z,0.00
2018-07-16T01:56:38.866Z,0.00
2018-07-16T01:57:38.838Z,0.00
2018-07-16T01:58:38.821Z,0.00
2018-07-16T01:59:38.861Z,0.00
2018-07-16T02:00:38.802Z,0.00
2018-07-16T02:01:38.795Z,0.00
2018-07-16T02:02:38.797Z,0.00
2018-07-16T02:03:38.773Z,0.00
2018-07-16T02:04:38.760Z,0.00
2018-07-16T02:05:38.751Z,0.00
2018-07-16T02:06:38.736Z,0.00
2018-07-16T02:07:38.742Z,0.00
2018-07-16T02:08:38.723Z,0.00
2018-07-16T02:09:38.704Z,0.00
2018-07-16T02:10:38.694Z,0.00
2018-07-16T02:11:38.682Z,0.00
2018-07-16T02:12:38.675Z,0.00
2018-07-16T02:13:38.770Z,0.00
2018-07-16T02:14:38.650Z,0.00
2018-07-16T02:15:38.742Z,0.00
2018-07-16T02:16:38.625Z,0.00
2018-07-16T02:17:38.616Z,0.00
2018-07-16T02:18:38.622Z,0.00
2018-07-16T02:19:38.599Z,0.00
2018-07-16T02:20:38.609Z,0.00
2018-07-16T02:21:40.457Z,0.00
2018-07-16T02:22:38.568Z,0.00
2018-07-16T02:23:38.549Z,0.00
2018-07-16T02:24:38.554Z,0.00
2018-07-16T02:25:38.535Z,0.00
2018-07-16T02:26:38.544Z,0.00
2018-07-16T02:27:38.510Z,0.00
2018-07-16T02:28:38.516Z,0.00
2018-07-16T02:29:38.502Z,0.00
2018-07-16T02:30:38.514Z,0.00
2018-07-16T02:31:39.586Z,0.00
2018-07-16T02:32:38.456Z,0.00
2018-07-16T02:33:38.442Z,0.00
2018-07-16T02:34:38.456Z,0.00
2018-07-16T02:35:38.434Z,0.00
2018-07-16T02:36:38.413Z,0.00
2018-07-16T02:37:38.408Z,0.00
2018-07-16T02:38:38.438Z,0.00
2018-07-16T02:39:38.588Z,0.00
2018-07-16T02:40:38.447Z,0.00
2018-07-16T02:41:38.391Z,0.00
2018-07-16T02:42:38.364Z,0.00
2018-07-16T02:43:38.417Z,0.00
2018-07-16T02:44:38.324Z,0.00
2018-07-16T02:45:38.330Z,0.00
2018-07-16T02:46:38.311Z,0.00
2018-07-16T02:47:38.295Z,0.00
2018-07-16T02:48:38.284Z,0.00
2018-07-16T02:49:38.278Z,0.00
2018-07-16T02:50:38.277Z,0.00
2018-07-16T02:51:38.249Z,0.00
2018-07-16T02:52:38.244Z,0.00
2018-07-16T02:53:38.260Z,4.00
2018-07-16T02:54:38.218Z,4.00
2018-07-16T02:55:38.206Z,0.00
2018-07-16T02:56:38.209Z,0.00
2018-07-16T02:57:38.184Z,4.00
2018-07-16T02:58:38.200Z,4.00
2018-07-16T02:59:38.164Z,0.00
2018-07-16T03:00:38.160Z,4.00
2018-07-16T03:01:38.157Z,4.00
2018-07-16T03:02:38.198Z,4.00
2018-07-16T03:03:38.133Z,4.00
2018-07-16T03:04:38.110Z,4.00
2018-07-16T03:05:38.116Z,4.00
2018-07-16T03:06:38.115Z,8.00
2018-07-16T03:07:38.265Z,8.00
2018-07-16T03:08:38.072Z,8.00
2018-07-16T03:09:38.054Z,12.00
2018-07-16T03:10:38.047Z,12.00
2018-07-16T03:11:38.107Z,12.00
2018-07-16T03:12:38.045Z,16.00
2018-07-16T03:13:38.054Z,16.00
2018-07-16T03:14:38.004Z,16.00
2018-07-16T03:15:37.990Z,20.00
2018-07-16T03:16:38.021Z,20.00
2018-07-16T03:17:37.995Z,24.00
2018-07-16T03:18:38.010Z,28.00
2018-07-16T03:19:37.946Z,32.00
2018-07-16T03:20:38.025Z,36.00
2018-07-16T03:21:37.925Z,40.00
2018-07-16T03:22:37.915Z,48.00
2018-07-16T03:23:37.920Z,52.00
2018-07-16T03:24:37.953Z,56.00
2018-07-16T03:25:37.881Z,64.00
2018-07-16T03:26:37.871Z,68.00
2018-07-16T03:27:38.045Z,76.00
2018-07-16T03:28:37.934Z,84.00
2018-07-16T03:29:37.847Z,92.00
2018-07-16T03:30:37.825Z,100.00
2018-07-16T03:31:37.816Z,112.00
2018-07-16T03:32:37.831Z,120.00
2018-07-16T03:33:37.795Z,132.00
2018-07-16T03:34:37.803Z,140.00
2018-07-16T03:35:37.770Z,152.00
2018-07-16T03:36:37.770Z,164.00
2018-07-16T03:37:37.752Z,180.00
2018-07-16T03:38:37.739Z,192.00
2018-07-16T03:39:37.771Z,208.00
2018-07-16T03:40:37.720Z,220.00
2018-07-16T03:41:37.717Z,236.00
2018-07-16T03:42:37.693Z,256.00
2018-07-16T03:43:37.681Z,272.00
2018-07-16T03:44:37.695Z,288.00
2018-07-16T03:45:37.662Z,312.00
2018-07-16T03:46:37.648Z,332.00
2018-07-16T03:47:37.641Z,352.00
2018-07-16T03:48:37.624Z,376.00
2018-07-16T03:49:37.614Z,396.00
2018-07-16T03:50:37.617Z,420.00
2018-07-16T03:51:37.595Z,448.00
2018-07-16T03:52:37.595Z,480.00
2018-07-16T03:53:37.679Z,512.00
2018-07-16T03:54:37.559Z,532.00
2018-07-16T03:55:37.581Z,560.00
2018-07-16T03:56:37.537Z,588.00
2018-07-16T03:57:37.526Z,624.00
2018-07-16T03:58:37.514Z,660.00
2018-07-16T03:59:37.503Z,700.00
2018-07-16T04:00:37.504Z,748.00
2018-07-16T04:01:37.536Z,804.00
2018-07-16T04:02:37.475Z,864.00
2018-07-16T04:03:37.462Z,928.00
2018-07-16T04:04:37.449Z,984.00
2018-07-16T04:05:37.455Z,1044.00
2018-07-16T04:06:37.428Z,1104.00
2018-07-16T04:07:37.419Z,1176.00
2018-07-16T04:08:37.416Z,1244.00
2018-07-16T04:09:37.394Z,1320.00
2018-07-16T04:10:37.382Z,1400.00
2018-07-16T04:11:37.404Z,1476.00
2018-07-16T04:12:37.364Z,1560.00
2018-07-16T04:13:37.369Z,1648.00
2018-07-16T04:14:37.341Z,1744.00
2018-07-16T04:15:37.347Z,1840.00
2018-07-16T04:16:37.342Z,1952.00
2018-07-16T04:17:37.308Z,2080.00
2018-07-16T04:18:37.298Z,2212.00
2018-07-16T04:19:37.286Z,2364.00
2018-07-16T04:20:37.273Z,2496.00
2018-07-16T04:21:37.266Z,2632.00
2018-07-16T04:22:37.264Z,2772.00
2018-07-16T04:23:37.244Z,2892.00
2018-07-16T04:24:37.235Z,3032.00
2018-07-16T04:25:37.241Z,3216.00
2018-07-16T04:26:37.207Z,3428.00
2018-07-16T04:27:37.210Z,3628.00
2018-07-16T04:28:37.186Z,3884.00
2018-07-16T04:29:37.179Z,4244.00
2018-07-16T04:30:37.164Z,4756.00
2018-07-16T04:31:37.164Z,5420.00
2018-07-16T04:32:37.166Z,5740.00
2018-07-16T04:33:37.134Z,5656.00
2018-07-16T04:34:37.141Z,5644.00
2018-07-16T04:35:37.114Z,5760.00
2018-07-16T04:36:37.124Z,5976.00
2018-07-16T04:37:37.098Z,5948.00
2018-07-16T04:38:37.098Z,5824.00
2018-07-16T04:39:37.066Z,5752.00
2018-07-16T04:40:37.054Z,5824.00
2018-07-16T04:41:37.045Z,5908.00
2018-07-16T04:42:37.036Z,5844.00
2018-07-16T04:43:37.023Z,5844.00
2018-07-16T04:44:37.025Z,5976.00
2018-07-16T04:45:37.000Z,6036.00
2018-07-16T04:46:36.994Z,6064.00
2018-07-16T04:47:36.979Z,6304.00
2018-07-16T04:48:36.968Z,6484.00
2018-07-16T04:49:36.993Z,6520.00
2018-07-16T04:50:36.948Z,6632.00
2018-07-16T04:51:36.934Z,6744.00
2018-07-16T04:52:36.923Z,6844.00
2018-07-16T04:53:36.912Z,6996.00
2018-07-16T04:54:36.902Z,7168.00
2018-07-16T04:55:36.904Z,7296.00
2018-07-16T04:56:36.885Z,7436.00
2018-07-16T04:57:36.872Z,7512.00
2018-07-16T04:58:36.858Z,7472.00
2018-07-16T04:59:36.871Z,7524.00
2018-07-16T05:00:36.858Z,7804.00
2018-07-16T05:01:36.831Z,8148.00
2018-07-16T05:02:36.815Z,8288.00
2018-07-16T05:03:36.808Z,8112.00
2018-07-16T05:04:36.796Z,8124.00
2018-07-16T05:05:36.782Z,8524.00
2018-07-16T05:06:36.785Z,8820.00
2018-07-16T05:07:36.763Z,8924.00
2018-07-16T05:08:36.757Z,9024.00
2018-07-16T05:09:36.748Z,9080.00
2018-07-16T05:10:36.728Z,9132.00
2018-07-16T05:11:36.733Z,9652.00
2018-07-16T05:12:36.711Z,10224.00
2018-07-16T05:13:36.698Z,10476.00
2018-07-16T05:14:36.763Z,10460.00
2018-07-16T05:15:36.678Z,10656.00
2018-07-16T05:16:36.699Z,11456.00
2018-07-16T05:17:36.657Z,12032.00
2018-07-16T05:18:36.651Z,12352.00
2018-07-16T05:19:36.635Z,12928.00
2018-07-16T05:20:36.623Z,12832.00
2018-07-16T05:21:36.616Z,11808.00
2018-07-16T05:22:36.634Z,11264.00
2018-07-16T05:23:36.589Z,11044.00
2018-07-16T05:24:36.580Z,11060.00
2018-07-16T05:25:36.568Z,11872.00
2018-07-16T05:26:36.558Z,14368.00
2018-07-16T05:27:36.561Z,16320.00
2018-07-16T05:28:36.540Z,17024.00
2018-07-16T05:29:36.525Z,17568.00
2018-07-16T05:30:36.558Z,17440.00
2018-07-16T05:31:36.513Z,17344.00
2018-07-16T05:32:36.749Z,18112.00
2018-07-16T05:33:36.484Z,19424.00
2018-07-16T05:34:36.478Z,19808.00
2018-07-16T05:35:36.467Z,20096.00
2018-07-16T05:36:36.452Z,20544.00
2018-07-16T05:37:36.440Z,21312.00
2018-07-16T05:38:36.445Z,22016.00
2018-07-16T05:39:36.419Z,25760.00
2018-07-16T05:40:36.411Z,27744.00
2018-07-16T05:41:36.399Z,26208.00
2018-07-16T05:42:36.393Z,21632.00
2018-07-16T05:43:36.391Z,22080.00
2018-07-16T05:44:36.371Z,22816.00
2018-07-16T05:45:36.386Z,23904.00
2018-07-16T05:46:36.348Z,23904.00
2018-07-16T05:47:36.335Z,24320.00
2018-07-16T05:48:36.344Z,24896.00
2018-07-16T05:49:36.314Z,24640.00
2018-07-16T05:50:36.307Z,25504.00
2018-07-16T05:51:36.295Z,26080.00
2018-07-16T05:52:36.286Z,26816.00
2018-07-16T05:53:36.273Z,27648.00
2018-07-16T05:54:36.275Z,27584.00
2018-07-16T05:55:36.277Z,28256.00
2018-07-16T05:56:36.240Z,28832.00
2018-07-16T05:57:36.232Z,29600.00
2018-07-16T05:58:36.226Z,28544.00
2018-07-16T05:59:36.227Z,28032.00
2018-07-16T06:00:36.202Z,28864.00
2018-07-16T06:01:36.189Z,30080.00
2018-07-16T06:02:36.180Z,30784.00
2018-07-16T06:03:36.171Z,30624.00
2018-07-16T06:04:36.160Z,30368.00
2018-07-16T06:05:36.216Z,30368.00
2018-07-16T06:06:36.139Z,31200.00
2018-07-16T06:07:36.130Z,31296.00
2018-07-16T06:08:36.179Z,31680.00
2018-07-16T06:09:36.129Z,31808.00
2018-07-16T06:10:36.112Z,31552.00
2018-07-16T06:11:36.090Z,32704.00
2018-07-16T06:12:36.412Z,32832.00
2018-07-16T06:13:36.064Z,33632.00
2018-07-16T06:14:36.193Z,33024.00
2018-07-16T06:15:36.056Z,31264.00
2018-07-16T06:16:36.045Z,32320.00
2018-07-16T06:17:36.024Z,33536.00
2018-07-16T06:18:36.037Z,33632.00
2018-07-16T06:19:36.011Z,31840.00
2018-07-16T06:20:36.057Z,30944.00
2018-07-16T06:21:35.981Z,32640.00
2018-07-16T06:22:35.973Z,35648.00
2018-07-16T06:23:35.962Z,36096.00
2018-07-16T06:24:35.963Z,34624.00
2018-07-16T06:25:35.975Z,32480.00
2018-07-16T06:26:35.937Z,32224.00
2018-07-16T06:27:35.923Z,33536.00
2018-07-16T06:28:35.911Z,35616.00
2018-07-16T06:29:35.901Z,36640.00
2018-07-16T06:30:35.890Z,36960.00
2018-07-16T06:31:35.908Z,39168.00
2018-07-16T06:32:36.011Z,39424.00
2018-07-16T06:33:35.861Z,38208.00
2018-07-16T06:34:35.851Z,39424.00
2018-07-16T06:35:35.841Z,40384.00
2018-07-16T06:36:35.845Z,40512.00
2018-07-16T06:37:35.821Z,40288.00
2018-07-16T06:38:35.812Z,39008.00
2018-07-16T06:39:35.825Z,40480.00
2018-07-16T06:40:35.948Z,41632.00
2018-07-16T06:41:36.280Z,42880.00
2018-07-16T06:42:35.772Z,43488.00
2018-07-16T06:43:35.764Z,42880.00
2018-07-16T06:44:35.753Z,43840.00
2018-07-16T06:45:35.740Z,42944.00
2018-07-16T06:46:35.731Z,43392.00
2018-07-16T06:47:35.734Z,44800.00
2018-07-16T06:48:35.715Z,45056.00
2018-07-16T06:49:35.711Z,46784.00
2018-07-16T06:50:35.699Z,47456.00
2018-07-16T06:51:35.705Z,46688.00
2018-07-16T06:52:35.687Z,46176.00
2018-07-16T06:53:35.663Z,44640.00
2018-07-16T06:54:35.652Z,46464.00
2018-07-16T06:55:35.645Z,48608.00
2018-07-16T06:56:35.635Z,46848.00
2018-07-16T06:57:35.636Z,45728.00
2018-07-16T06:58:35.617Z,46656.00
2018-07-16T06:59:35.604Z,46464.00
2018-07-16T07:00:35.595Z,49568.00
2018-07-16T07:01:35.634Z,52640.00
2018-07-16T07:02:35.592Z,52352.00
2018-07-16T07:03:35.568Z,50912.00
2018-07-16T07:04:35.555Z,51808.00
2018-07-16T07:05:35.547Z,54144.00
2018-07-16T07:06:35.537Z,53600.00
2018-07-16T07:07:35.524Z,54048.00
2018-07-16T07:08:35.531Z,55072.00
2018-07-16T07:09:35.507Z,57312.00
2018-07-16T07:10:35.500Z,56896.00
2018-07-16T07:11:35.489Z,55104.00
2018-07-16T07:12:35.521Z,55488.00
2018-07-16T07:13:35.472Z,57536.00
2018-07-16T07:14:35.475Z,56288.00
2018-07-16T07:15:35.456Z,56160.00
2018-07-16T07:16:35.446Z,57024.00
2018-07-16T07:17:35.434Z,58816.00
2018-07-16T07:18:35.436Z,59104.00
2018-07-16T07:19:35.416Z,58208.00
2018-07-16T07:20:35.406Z,55648.00
2018-07-16T07:21:35.394Z,53824.00
2018-07-16T07:22:35.400Z,59360.00
2018-07-16T07:23:35.377Z,61472.00
2018-07-16T07:24:35.381Z,58208.00
2018-07-16T07:25:35.508Z,52000.00
2018-07-16T07:26:35.348Z,55552.00
2018-07-16T07:27:35.337Z,59232.00
2018-07-16T07:28:35.363Z,62240.00
2018-07-16T07:29:35.321Z,62496.00
2018-07-16T07:30:35.311Z,61472.00
2018-07-16T07:31:35.302Z,58336.00
2018-07-16T07:32:35.293Z,59360.00
2018-07-16T07:33:35.295Z,62976.00
2018-07-16T07:34:35.290Z,65312.00
2018-07-16T07:35:35.405Z,65888.00
2018-07-16T07:36:35.254Z,63296.00
2018-07-16T07:37:35.255Z,61312.00
2018-07-16T07:38:35.253Z,63872.00
2018-07-16T07:39:35.227Z,66976.00
2018-07-16T07:40:35.217Z,66432.00
2018-07-16T07:41:35.207Z,68768.00
2018-07-16T07:42:35.199Z,68256.00
2018-07-16T07:43:35.194Z,64896.00
2018-07-16T07:44:35.210Z,60256.00
2018-07-16T07:45:35.170Z,61472.00
2018-07-16T07:46:35.165Z,65728.00
2018-07-16T07:47:35.203Z,67904.00
2018-07-16T07:48:35.142Z,67904.00
2018-07-16T07:49:35.144Z,63168.00
2018-07-16T07:50:35.124Z,58048.00
2018-07-16T07:51:35.116Z,64448.00
2018-07-16T07:52:35.110Z,68640.00
2018-07-16T07:53:35.100Z,68320.00
2018-07-16T07:54:35.231Z,68096.00
2018-07-16T07:55:35.084Z,70112.00
2018-07-16T07:56:35.075Z,68480.00
2018-07-16T07:57:35.064Z,64864.00
2018-07-16T07:58:35.052Z,63648.00
2018-07-16T07:59:35.044Z,66400.00
2018-07-16T08:00:35.046Z,69024.00
2018-07-16T08:01:35.026Z,71072.00
2018-07-16T08:02:35.017Z,69728.00
2018-07-16T08:03:35.009Z,70656.00
2018-07-16T08:04:35.002Z,71552.00
2018-07-16T08:05:35.006Z,71072.00
2018-07-16T08:06:34.983Z,72352.00
2018-07-16T08:07:34.989Z,76448.00
2018-07-16T08:08:34.965Z,75840.00
2018-07-16T08:09:34.956Z,75328.00
2018-07-16T08:10:34.968Z,76448.00
2018-07-16T08:11:34.942Z,75168.00
2018-07-16T08:12:34.930Z,74976.00
2018-07-16T08:13:34.954Z,73280.00
2018-07-16T08:14:34.912Z,74176.00
2018-07-16T08:15:34.906Z,76160.00
2018-07-16T08:16:34.909Z,73376.00
2018-07-16T08:17:34.909Z,76416.00
2018-07-16T08:18:34.888Z,76704.00
2018-07-16T08:19:34.873Z,77376.00
2018-07-16T08:20:34.863Z,81760.00
2018-07-16T08:21:34.855Z,80992.00
2018-07-16T08:22:34.857Z,78176.00
2018-07-16T08:23:34.837Z,77440.00
2018-07-16T08:24:34.827Z,73664.00
2018-07-16T08:25:34.824Z,75744.00
2018-07-16T08:26:34.813Z,78944.00
2018-07-16T08:27:34.833Z,81952.00
2018-07-16T08:28:34.795Z,79200.00
2018-07-16T08:29:34.795Z,78752.00
2018-07-16T08:30:34.780Z,77536.00
2018-07-16T08:31:34.772Z,79712.00
2018-07-16T08:32:34.793Z,80768.00
2018-07-16T08:33:34.784Z,80000.00
2018-07-16T08:34:34.758Z,79104.00
2018-07-16T08:35:34.740Z,81664.00
2018-07-16T08:36:34.733Z,84032.00
2018-07-16T08:37:34.736Z,80736.00
2018-07-16T08:38:34.732Z,75232.00
2018-07-16T08:39:34.710Z,73120.00
2018-07-16T08:40:34.704Z,74752.00
2018-07-16T08:41:34.697Z,83232.00
2018-07-16T08:42:34.685Z,82784.00
2018-07-16T08:43:34.691Z,74336.00
2018-07-16T08:44:34.670Z,72800.00
2018-07-16T08:45:34.660Z,72288.00
2018-07-16T08:46:34.653Z,78176.00
2018-07-16T08:47:34.658Z,80224.00
2018-07-16T08:48:34.648Z,78112.00
2018-07-16T08:49:34.630Z,81472.00
2018-07-16T08:50:34.619Z,91008.00
2018-07-16T08:51:34.615Z,83104.00
2018-07-16T08:52:34.627Z,73856.00
2018-07-16T08:53:34.634Z,86048.00
2018-07-16T08:54:34.590Z,94144.00
2018-07-16T08:55:34.583Z,83424.00
2018-07-16T08:56:34.575Z,80928.00
2018-07-16T08:57:34.580Z,80672.00
2018-07-16T08:58:34.560Z,80192.00
2018-07-16T08:59:34.563Z,82560.00
2018-07-16T09:00:34.543Z,79328.00
2018-07-16T09:01:34.537Z,80512.00
2018-07-16T09:02:34.530Z,86464.00
2018-07-16T09:03:34.520Z,86464.00
2018-07-16T09:04:34.527Z,76064.00
2018-07-16T09:05:34.506Z,58976.00
2018-07-16T09:06:34.497Z,47520.00
2018-07-16T09:07:34.502Z,54496.00
2018-07-16T09:08:34.484Z,71168.00
2018-07-16T09:09:34.492Z,88928.00
2018-07-16T09:10:34.472Z,92704.00
2018-07-16T09:11:34.461Z,85984.00
2018-07-16T09:12:34.451Z,88096.00
2018-07-16T09:13:34.473Z,89952.00
2018-07-16T09:14:34.503Z,91392.00
2018-07-16T09:15:34.432Z,89152.00
2018-07-16T09:16:34.432Z,87456.00
2018-07-16T09:17:34.442Z,86336.00
2018-07-16T09:18:34.414Z,84576.00
2018-07-16T09:19:34.430Z,83392.00
2018-07-16T09:20:34.420Z,83392.00
2018-07-16T09:21:34.393Z,89440.00
2018-07-16T09:22:34.381Z,91328.00
2018-07-16T09:23:34.375Z,92480.00
2018-07-16T09:24:34.384Z,91168.00
2018-07-16T09:25:34.420Z,90240.00
2018-07-16T09:26:34.353Z,86368.00
2018-07-16T09:27:34.363Z,88320.00
2018-07-16T09:28:34.363Z,89664.00
2018-07-16T09:29:34.334Z,93280.00
2018-07-16T09:30:34.323Z,98400.00
2018-07-16T09:31:34.331Z,94176.00
2018-07-16T09:32:34.316Z,91200.00
2018-07-16T09:33:34.309Z,91072.00
2018-07-16T09:34:34.297Z,88000.00
2018-07-16T09:35:34.295Z,84864.00
2018-07-16T09:36:34.296Z,84608.00
2018-07-16T09:37:34.286Z,85280.00
2018-07-16T09:38:34.268Z,82208.00
2018-07-16T09:39:34.263Z,82336.00
2018-07-16T09:40:34.255Z,86144.00
2018-07-16T09:41:34.261Z,91360.00
2018-07-16T09:42:34.242Z,91968.00
2018-07-16T09:43:34.264Z,88576.00
2018-07-16T09:44:34.303Z,86976.00
2018-07-16T09:45:34.222Z,88384.00
2018-07-16T09:46:34.228Z,90944.00
2018-07-16T09:47:34.210Z,90848.00
2018-07-16T09:48:34.203Z,90944.00
2018-07-16T09:49:34.193Z,87808.00
2018-07-16T09:50:34.187Z,87968.00
2018-07-16T09:51:34.236Z,90080.00
2018-07-16T09:52:34.173Z,89760.00
2018-07-16T09:53:34.166Z,92512.00
2018-07-16T09:54:34.160Z,90816.00
2018-07-16T09:55:34.153Z,92288.00
2018-07-16T09:56:34.144Z,92544.00
2018-07-16T09:57:34.181Z,91712.00
2018-07-16T09:58:34.130Z,91008.00
2018-07-16T09:59:34.120Z,90464.00
2018-07-16T10:00:34.113Z,90752.00
2018-07-16T10:01:34.107Z,91200.00
2018-07-16T10:02:34.098Z,93248.00
2018-07-16T10:03:34.123Z,94624.00
2018-07-16T10:04:34.083Z,94624.00
2018-07-16T10:05:34.077Z,94208.00
2018-07-16T10:06:34.068Z,91488.00
2018-07-16T10:07:34.074Z,91936.00
2018-07-16T10:08:34.182Z,90560.00
2018-07-16T10:09:34.045Z,89952.00
2018-07-16T10:10:34.038Z,89280.00
2018-07-16T10:11:34.033Z,90624.00
2018-07-16T10:12:34.026Z,90880.00
2018-07-16T10:13:34.033Z,90272.00
2018-07-16T10:14:34.009Z,93120.00
2018-07-16T10:15:34.005Z,91392.00
2018-07-16T10:16:33.995Z,89056.00
2018-07-16T10:17:33.989Z,92320.00
2018-07-16T10:18:33.979Z,93920.00
2018-07-16T10:19:33.984Z,94560.00
2018-07-16T10:20:34.034Z,95776.00
2018-07-16T10:21:33.956Z,94720.00
2018-07-16T10:22:33.950Z,92096.00
2018-07-16T10:23:33.943Z,92672.00
2018-07-16T10:24:33.967Z,94208.00
2018-07-16T10:25:33.928Z,93440.00
2018-07-16T10:26:33.920Z,91552.00
2018-07-16T10:27:33.913Z,94304.00
2018-07-16T10:28:33.914Z,96928.00
2018-07-16T10:29:33.915Z,99488.00
2018-07-16T10:30:33.893Z,96288.00
2018-07-16T10:31:33.889Z,94912.00
2018-07-16T10:32:33.882Z,92448.00
2018-07-16T10:33:33.875Z,91104.00
2018-07-16T10:34:33.907Z,92256.00
2018-07-16T10:35:33.860Z,91360.00
2018-07-16T10:36:33.854Z,90752.00
2018-07-16T10:37:33.848Z,92064.00
2018-07-16T10:38:33.852Z,93152.00
2018-07-16T10:39:33.838Z,88352.00
2018-07-16T10:40:33.840Z,87072.00
2018-07-16T10:41:33.818Z,87040.00
2018-07-16T10:42:33.813Z,91136.00
2018-07-16T10:43:33.822Z,92608.00
2018-07-16T10:44:33.819Z,94880.00
2018-07-16T10:45:33.803Z,93600.00
2018-07-16T10:46:33.784Z,90912.00
2018-07-16T10:47:33.777Z,90656.00
2018-07-16T10:48:33.771Z,93088.00
2018-07-16T10:49:33.765Z,92704.00
2018-07-16T10:50:33.770Z,94720.00
2018-07-16T10:51:33.751Z,95648.00
2018-07-16T10:52:33.742Z,95072.00
2018-07-16T10:53:33.733Z,89568.00
2018-07-16T10:54:33.740Z,88800.00
2018-07-16T10:55:33.735Z,89216.00
2018-07-16T10:56:33.718Z,84864.00
2018-07-16T10:57:33.717Z,90240.00
2018-07-16T10:58:33.702Z,92448.00
2018-07-16T10:59:33.693Z,90784.00
2018-07-16T11:00:33.704Z,92512.00
2018-07-16T11:01:33.684Z,92000.00
2018-07-16T11:02:33.676Z,91264.00
2018-07-16T11:03:33.670Z,93376.00
2018-07-16T11:04:33.674Z,92288.00
2018-07-16T11:05:33.784Z,91072.00
2018-07-16T11:06:33.647Z,87808.00
2018-07-16T11:07:33.641Z,91296.00
2018-07-16T11:08:33.633Z,93376.00
2018-07-16T11:09:33.627Z,91232.00
2018-07-16T11:10:33.662Z,90752.00
2018-07-16T11:11:33.640Z,89216.00
2018-07-16T11:12:33.605Z,92800.00
2018-07-16T11:13:33.598Z,92832.00
2018-07-16T11:14:33.611Z,92448.00
2018-07-16T11:15:33.584Z,90656.00
2018-07-16T11:16:33.591Z,88736.00
2018-07-16T11:17:33.570Z,91424.00
2018-07-16T11:18:33.564Z,92608.00
2018-07-16T11:19:33.555Z,92608.00
2018-07-16T11:20:33.557Z,91648.00
2018-07-16T11:21:33.600Z,90432.00
2018-07-16T11:22:33.919Z,88608.00
2018-07-16T11:23:33.534Z,88800.00
2018-07-16T11:24:33.536Z,88000.00
2018-07-16T11:25:33.517Z,91424.00
2018-07-16T11:26:33.508Z,89952.00
2018-07-16T11:27:33.514Z,91744.00
2018-07-16T11:28:33.496Z,90656.00
2018-07-16T11:29:33.489Z,91904.00
2018-07-16T11:30:33.482Z,93888.00
2018-07-16T11:31:33.488Z,96960.00
2018-07-16T11:32:33.479Z,95744.00
2018-07-16T11:33:33.464Z,93600.00
2018-07-16T11:34:33.457Z,90592.00
2018-07-16T11:35:33.529Z,89632.00
2018-07-16T11:36:33.527Z,89792.00
2018-07-16T11:37:33.469Z,94368.00
2018-07-16T11:38:33.428Z,93440.00
2018-07-16T11:39:33.435Z,91776.00
2018-07-16T11:40:33.417Z,89312.00
2018-07-16T11:41:33.407Z,88800.00
2018-07-16T11:42:33.399Z,92768.00
2018-07-16T11:43:33.405Z,93248.00
2018-07-16T11:44:33.385Z,89600.00
2018-07-16T11:45:33.379Z,87968.00
2018-07-16T11:46:33.373Z,85664.00
2018-07-16T11:47:33.365Z,91648.00
2018-07-16T11:48:33.369Z,94112.00
2018-07-16T11:49:33.350Z,96928.00
2018-07-16T11:50:33.349Z,96000.00
2018-07-16T11:51:33.339Z,97088.00
2018-07-16T11:52:33.331Z,90240.00
2018-07-16T11:53:33.361Z,72032.00
2018-07-16T11:54:33.316Z,35328.00
2018-07-16T11:55:33.309Z,9000.00
2018-07-16T11:56:33.303Z,5712.00
2018-07-16T11:57:33.299Z,5352.00
2018-07-16T11:58:33.289Z,5188.00
2018-07-16T11:59:33.293Z,5084.00
2018-07-16T12:00:33.275Z,5004.00
2018-07-16T12:01:33.289Z,4916.00
2018-07-16T12:02:33.258Z,4836.00
2018-07-16T12:03:33.378Z,4832.00
2018-07-16T12:04:33.261Z,4900.00
2018-07-16T12:05:33.238Z,5092.00
2018-07-16T12:06:33.227Z,5280.00
2018-07-16T12:07:33.220Z,5292.00
2018-07-16T12:08:33.213Z,5304.00
2018-07-16T12:09:33.206Z,5556.00
2018-07-16T12:10:33.205Z,5572.00
2018-07-16T12:11:33.184Z,5648.00
2018-07-16T12:12:33.187Z,5656.00
2018-07-16T12:13:33.167Z,5680.00